createdAt,value
2019-02-22T00:00:52.834Z,9.54
2019-02-22T00:01:52.886Z,9.56
2019-02-22T00:02:52.828Z,9.53
2019-02-22T00:03:53.021Z,9.56
2019-02-22T00:04:52.838Z,9.54
2019-02-22T00:05:52.905Z,9.55
2019-02-22T00:06:52.850Z,9.54
2019-02-22T00:07:53.144Z,9.54
2019-02-22T00:08:53.097Z,9.56
2019-02-22T00:09:53.026Z,9.56
2019-02-22T00:10:52.762Z,9.54
2019-02-22T00:11:53.064Z,9.54
2019-02-22T00:12:53.558Z,9.53
2019-02-22T00:13:52.595Z,9.57
2019-02-22T00:14:52.575Z,9.55
2019-02-22T00:15:52.579Z,9.54
2019-02-22T00:16:53.098Z,9.58
2019-02-22T00:17:52.900Z,9.55
2019-02-22T00:18:53.160Z,9.55
2019-02-22T00:19:52.898Z,9.57
2019-02-22T00:20:52.897Z,9.57
2019-02-22T00:21:52.845Z,9.58
2019-02-22T00:22:53.119Z,9.55
2019-02-22T00:23:52.884Z,9.57
2019-02-22T00:24:52.746Z,9.57
2019-02-22T00:25:53.584Z,9.57
2019-02-22T00:26:53.394Z,9.55
2019-02-22T00:27:53.025Z,9.58
2019-02-22T00:28:53.613Z,9.58
2019-02-22T00:29:53.494Z,9.58
2019-02-22T00:30:53.080Z,9.58
2019-02-22T00:31:52.842Z,9.56
2019-02-22T00:32:53.060Z,9.6
2019-02-22T00:33:52.730Z,9.58
2019-02-22T00:34:54.370Z,9.59
2019-02-22T00:35:54.506Z,9.59
2019-02-22T00:36:53.168Z,9.59
2019-02-22T00:37:52.900Z,9.6
2019-02-22T00:41:52.904Z,9.59
2019-02-22T00:42:52.809Z,9.61
2019-02-22T00:43:53.574Z,9.59
2019-02-22T00:44:52.719Z,9.59
2019-02-22T00:45:52.785Z,9.61
2019-02-22T00:46:53.063Z,9.59
2019-02-22T00:47:52.812Z,9.58
2019-02-22T00:48:52.790Z,9.58
2019-02-22T00:49:52.787Z,9.58
2019-02-22T00:50:52.716Z,9.57
2019-02-22T00:51:53.636Z,9.57
2019-02-22T00:52:54.580Z,9.53
2019-02-22T00:53:53.270Z,9.54
2019-02-22T00:54:52.956Z,9.53
2019-02-22T00:55:52.912Z,9.55
2019-02-22T00:56:54.081Z,9.53
2019-02-22T00:57:52.844Z,9.53
2019-02-22T00:58:52.813Z,9.55
2019-02-22T00:59:52.810Z,9.53
2019-02-22T01:00:52.839Z,9.56
2019-02-22T01:01:53.754Z,9.57
2019-02-22T01:02:53.218Z,9.55
2019-02-22T01:03:52.897Z,9.56
2019-02-22T01:04:53.244Z,9.57
2019-02-22T01:05:52.673Z,9.56
2019-02-22T01:06:53.360Z,9.56
2019-02-22T01:07:52.809Z,9.54
2019-02-22T01:08:52.707Z,9.56
2019-02-22T01:09:53.122Z,9.54
2019-02-22T01:10:53.385Z,9.54
2019-02-22T01:11:52.803Z,9.56
2019-02-22T01:12:52.829Z,9.56
2019-02-22T01:13:52.693Z,9.53
2019-02-22T01:14:52.693Z,9.56
2019-02-22T01:15:52.825Z,9.53
2019-02-22T01:16:52.847Z,9.53
2019-02-22T01:17:52.710Z,9.53
2019-02-22T01:18:53.130Z,9.52
2019-02-22T01:19:54.147Z,9.52
2019-02-22T01:20:55.118Z,9.53
2019-02-22T01:21:52.647Z,9.54
2019-02-22T01:22:52.759Z,9.53
2019-02-22T01:23:52.742Z,9.53
2019-02-22T01:24:53.244Z,9.5
2019-02-22T01:25:52.905Z,9.51
2019-02-22T01:26:53.193Z,9.51
2019-02-22T01:27:52.753Z,9.51
2019-02-22T01:28:52.808Z,9.49
2019-02-22T01:29:52.921Z,9.48
2019-02-22T01:30:52.465Z,9.48
2019-02-22T01:31:52.777Z,9.5
2019-02-22T01:32:52.790Z,9.47
2019-02-22T01:33:54.612Z,9.47
2019-02-22T01:34:52.934Z,9.47
2019-02-22T01:35:52.672Z,9.48
2019-02-22T01:36:54.513Z,9.48
2019-02-22T01:37:52.704Z,9.47
2019-02-22T01:38:52.464Z,9.47
2019-02-22T01:39:52.477Z,9.44
2019-02-22T01:40:52.483Z,9.44
2019-02-22T01:41:52.464Z,9.44
2019-02-22T01:42:52.851Z,9.43
2019-02-22T01:43:52.648Z,9.43
2019-02-22T01:44:52.724Z,9.42
2019-02-22T01:45:53.159Z,9.41
2019-02-22T01:46:52.651Z,9.41
2019-02-22T01:47:52.807Z,9.41
2019-02-22T01:48:53.506Z,9.41
2019-02-22T01:49:52.849Z,9.41
2019-02-22T01:50:54.447Z,9.42
2019-02-22T01:51:54.469Z,9.42
2019-02-22T01:52:54.483Z,9.43
2019-02-22T01:53:54.427Z,9.41
2019-02-22T01:54:52.647Z,9.41
2019-02-22T01:55:54.471Z,9.41
2019-02-22T01:56:52.433Z,9.42
2019-02-22T01:57:52.449Z,9.42
2019-02-22T01:58:52.447Z,9.41
2019-02-22T01:59:52.446Z,9.42
2019-02-22T02:00:52.670Z,9.43
2019-02-22T02:01:54.449Z,9.42
2019-02-22T02:02:52.426Z,9.41
2019-02-22T02:03:52.433Z,9.4
2019-02-22T02:04:52.422Z,9.41
2019-02-22T02:05:52.688Z,9.38
2019-02-22T02:06:52.789Z,9.37
2019-02-22T02:07:53.033Z,9.41
2019-02-22T02:08:52.646Z,9.4
2019-02-22T02:09:52.734Z,9.4
2019-02-22T02:10:54.840Z,9.39
2019-02-22T02:11:52.624Z,9.37
2019-02-22T02:12:53.184Z,9.37
2019-02-22T02:13:52.701Z,9.38
2019-02-22T02:14:52.905Z,9.38
2019-02-22T02:15:52.670Z,9.38
2019-02-22T02:16:52.662Z,9.36
2019-02-22T02:17:52.998Z,9.35
2019-02-22T02:18:52.592Z,9.34
2019-02-22T02:19:52.599Z,9.34
2019-02-22T02:20:53.053Z,9.37
2019-02-22T02:21:52.692Z,9.34
2019-02-22T02:22:52.637Z,9.35
2019-02-22T02:23:53.046Z,9.35
2019-02-22T02:24:52.849Z,9.35
2019-02-22T02:25:53.101Z,9.36
2019-02-22T02:26:53.433Z,9.37
2019-02-22T02:27:54.403Z,9.35
2019-02-22T02:28:52.765Z,9.37
2019-02-22T02:29:52.566Z,9.35
2019-02-22T02:30:53.167Z,9.35
2019-02-22T02:31:54.442Z,9.35
2019-02-22T02:32:53.112Z,9.35
2019-02-22T02:33:52.818Z,9.36
2019-02-22T02:34:52.763Z,9.35
2019-02-22T02:35:53.027Z,9.36
2019-02-22T02:36:54.431Z,9.36
2019-02-22T02:37:54.404Z,9.35
2019-02-22T02:38:53.149Z,9.35
2019-02-22T02:39:52.803Z,9.35
2019-02-22T02:40:52.956Z,9.36
2019-02-22T02:41:52.636Z,9.38
2019-02-22T02:42:52.699Z,9.36
2019-02-22T02:43:52.417Z,9.35
2019-02-22T02:44:52.834Z,9.34
2019-02-22T02:45:52.609Z,9.34
2019-02-22T02:46:52.586Z,9.34
2019-02-22T02:47:53.499Z,9.34
2019-02-22T02:48:53.111Z,9.34
2019-02-22T02:49:52.662Z,9.34
2019-02-22T02:50:52.658Z,9.34
2019-02-22T02:51:52.942Z,9.34
2019-02-22T02:52:52.829Z,9.34
2019-02-22T02:53:52.795Z,9.32
2019-02-22T02:54:52.759Z,9.34
2019-02-22T02:55:52.572Z,9.36
2019-02-22T02:56:53.448Z,9.38
2019-02-22T02:57:52.594Z,9.35
2019-02-22T02:58:53.473Z,9.36
2019-02-22T02:59:54.376Z,9.35
2019-02-22T03:00:52.559Z,9.35
2019-02-22T03:01:52.798Z,9.4
2019-02-22T03:02:54.358Z,9.35
2019-02-22T03:03:54.761Z,9.36
2019-02-22T03:04:52.631Z,9.38
2019-02-22T03:05:52.910Z,9.35
2019-02-22T03:06:52.646Z,9.34
2019-02-22T03:07:52.662Z,9.35
2019-02-22T03:08:53.310Z,9.34
2019-02-22T03:09:53.049Z,9.32
2019-02-22T03:10:52.555Z,9.34
2019-02-22T03:11:52.753Z,9.34
2019-02-22T03:12:52.683Z,9.36
2019-02-22T03:13:53.111Z,9.34
2019-02-22T03:14:54.340Z,9.34
2019-02-22T03:15:52.860Z,9.34
2019-02-22T03:16:52.835Z,9.35
2019-02-22T03:17:52.781Z,9.36
2019-02-22T03:18:52.574Z,9.36
2019-02-22T03:19:53.406Z,9.4
2019-02-22T03:20:52.930Z,9.4
2019-02-22T03:21:52.492Z,9.4
2019-02-22T03:22:53.050Z,9.4
2019-02-22T03:23:52.649Z,9.4
2019-02-22T03:24:54.024Z,9.41
2019-02-22T03:25:52.732Z,9.4
2019-02-22T03:26:52.897Z,9.41
2019-02-22T03:27:53.005Z,9.41
2019-02-22T03:28:52.637Z,9.45
2019-02-22T03:29:52.872Z,9.44
2019-02-22T03:30:53.012Z,9.48
2019-02-22T03:31:52.719Z,9.48
2019-02-22T03:32:52.805Z,9.49
2019-02-22T03:33:52.766Z,9.55
2019-02-22T03:34:52.544Z,9.57
2019-02-22T03:35:52.656Z,9.55
2019-02-22T03:36:52.750Z,9.6
2019-02-22T03:37:52.550Z,9.62
2019-02-22T03:38:52.687Z,9.67
2019-02-22T03:39:52.520Z,9.69
2019-02-22T03:40:52.607Z,9.73
2019-02-22T03:41:52.755Z,9.74
2019-02-22T03:42:53.083Z,9.77
2019-02-22T03:43:52.664Z,9.78
2019-02-22T03:44:52.488Z,9.83
2019-02-22T03:45:53.162Z,9.82
2019-02-22T03:46:52.773Z,9.84
2019-02-22T03:47:52.492Z,9.85
2019-02-22T03:48:52.676Z,9.86
2019-02-22T03:49:52.802Z,9.84
2019-02-22T03:50:52.724Z,9.85
2019-02-22T03:51:53.176Z,9.87
2019-02-22T03:52:54.338Z,9.88
2019-02-22T03:53:52.528Z,9.85
2019-02-22T03:54:52.658Z,9.87
2019-02-22T03:55:52.850Z,9.86
2019-02-22T03:56:52.651Z,9.87
2019-02-22T03:57:52.754Z,9.88
2019-02-22T03:58:52.570Z,9.92
2019-02-22T03:59:53.163Z,9.9
2019-02-22T04:00:52.550Z,9.88
2019-02-22T04:01:52.785Z,9.91
2019-02-22T04:02:52.556Z,9.91
2019-02-22T04:03:52.466Z,9.92
2019-02-22T04:04:52.536Z,9.91
2019-02-22T04:05:52.613Z,9.91
2019-02-22T04:06:52.505Z,9.91
2019-02-22T04:07:52.529Z,9.89
2019-02-22T04:08:52.602Z,9.9
2019-02-22T04:09:52.875Z,9.88
2019-02-22T04:10:52.856Z,9.88
2019-02-22T04:11:52.780Z,9.9
2019-02-22T04:12:52.459Z,9.9
2019-02-22T04:13:53.226Z,9.91
2019-02-22T04:14:52.984Z,9.91
2019-02-22T04:15:52.617Z,9.92
2019-02-22T04:16:53.094Z,9.93
2019-02-22T04:17:52.525Z,9.92
2019-02-22T04:18:52.781Z,9.92
2019-02-22T04:19:52.410Z,9.91
2019-02-22T04:20:53.375Z,9.9
2019-02-22T04:21:52.490Z,9.9
2019-02-22T04:22:52.713Z,9.9
2019-02-22T04:23:52.485Z,9.9
2019-02-22T04:24:52.395Z,9.9
2019-02-22T04:25:52.485Z,9.9
2019-02-22T04:26:52.459Z,9.87
2019-02-22T04:27:52.982Z,9.89
2019-02-22T04:28:52.555Z,9.87
2019-02-22T04:29:52.532Z,9.85
2019-02-22T04:30:52.527Z,9.85
2019-02-22T04:31:52.674Z,9.86
2019-02-22T04:32:52.409Z,9.86
2019-02-22T04:33:52.449Z,9.84
2019-02-22T04:34:52.498Z,9.85
2019-02-22T04:35:53.712Z,9.89
2019-02-22T04:36:54.234Z,9.88
2019-02-22T04:37:52.852Z,9.86
2019-02-22T04:38:52.923Z,9.85
2019-02-22T04:39:52.394Z,9.84
2019-02-22T04:40:52.585Z,9.87
2019-02-22T04:41:58.791Z,9.84
2019-02-22T04:42:52.504Z,9.82
2019-02-22T04:43:52.558Z,9.82
2019-02-22T04:44:52.405Z,9.82
2019-02-22T04:45:52.672Z,9.8
2019-02-22T04:46:52.529Z,9.78
2019-02-22T04:47:52.567Z,9.77
2019-02-22T04:48:52.477Z,9.76
2019-02-22T04:49:54.252Z,9.76
2019-02-22T04:50:53.085Z,9.73
2019-02-22T04:51:54.228Z,9.75
2019-02-22T04:52:52.855Z,9.71
2019-02-22T04:53:52.420Z,9.71
2019-02-22T04:54:52.734Z,9.71
2019-02-22T04:55:52.738Z,9.7
2019-02-22T04:56:53.056Z,9.7
2019-02-22T04:57:53.878Z,9.68
2019-02-22T04:58:52.556Z,9.67
2019-02-22T04:59:53.281Z,9.65
2019-02-22T05:00:53.234Z,9.65
2019-02-22T05:01:52.474Z,9.66
2019-02-22T05:02:52.546Z,9.65
2019-02-22T05:03:52.608Z,9.64
2019-02-22T05:04:52.464Z,9.63
2019-02-22T05:05:52.684Z,9.64
2019-02-22T05:06:52.592Z,9.64
2019-02-22T05:07:52.775Z,9.64
2019-02-22T05:08:52.721Z,9.61
2019-02-22T05:09:52.446Z,9.62
2019-02-22T05:10:52.719Z,9.61
2019-02-22T05:11:52.722Z,9.6
2019-02-22T05:12:54.234Z,9.59
2019-02-22T05:13:53.213Z,9.58
2019-02-22T05:14:53.663Z,9.58
2019-02-22T05:15:52.773Z,9.57
2019-02-22T05:16:53.924Z,9.55
2019-02-22T05:17:52.439Z,9.54
2019-02-22T05:18:53.883Z,9.54
2019-02-22T05:19:52.336Z,9.54
2019-02-22T05:20:52.697Z,9.53
2019-02-22T05:21:52.447Z,9.53
2019-02-22T05:23:07.805Z,9.53
2019-02-22T05:23:53.294Z,9.49
2019-02-22T05:24:52.780Z,9.51
2019-02-22T05:25:52.878Z,9.51
2019-02-22T05:26:53.150Z,9.5
2019-02-22T05:27:52.791Z,9.5
2019-02-22T05:28:52.633Z,9.47
2019-02-22T05:29:52.511Z,9.5
2019-02-22T05:30:52.434Z,9.5
2019-02-22T05:31:52.490Z,9.49
2019-02-22T05:32:52.662Z,9.48
2019-02-22T05:33:52.480Z,9.47
2019-02-22T05:34:52.325Z,9.47
2019-02-22T05:35:52.600Z,9.49
2019-02-22T05:36:52.602Z,9.46
2019-02-22T05:37:52.479Z,9.48
2019-02-22T05:38:52.505Z,9.47
2019-02-22T05:39:53.162Z,9.45
2019-02-22T05:40:53.070Z,9.46
2019-02-22T05:41:52.454Z,9.45
2019-02-22T05:42:52.359Z,9.46
2019-02-22T05:43:52.959Z,9.47
2019-02-22T05:44:54.145Z,9.47
2019-02-22T05:45:53.199Z,9.46
2019-02-22T05:47:01.062Z,9.46
2019-02-22T05:47:52.580Z,9.47
2019-02-22T05:48:52.357Z,9.47
2019-02-22T05:49:53.391Z,9.46
2019-02-22T05:50:52.394Z,9.49
2019-02-22T05:51:52.380Z,9.44
2019-02-22T05:52:52.687Z,9.44
2019-02-22T05:53:52.644Z,9.46
2019-02-22T05:54:54.294Z,9.46
2019-02-22T05:55:52.383Z,9.46
2019-02-22T05:56:55.733Z,9.46
2019-02-22T05:57:52.553Z,9.43
2019-02-22T05:58:52.354Z,9.45
2019-02-22T05:59:52.946Z,9.42
2019-02-22T06:00:52.147Z,9.42
2019-02-22T06:01:53.026Z,9.42
2019-02-22T06:02:52.472Z,9.42
2019-02-22T06:03:52.678Z,9.44
2019-02-22T06:04:52.452Z,9.45
2019-02-22T06:05:52.789Z,9.44
2019-02-22T06:06:54.109Z,9.44
2019-02-22T06:07:52.522Z,9.44
2019-02-22T06:08:52.754Z,9.44
2019-02-22T06:09:54.122Z,9.42
2019-02-22T06:10:52.651Z,9.43
2019-02-22T06:11:52.645Z,9.43
2019-02-22T06:12:53.220Z,9.41
2019-02-22T06:13:52.339Z,9.41
2019-02-22T06:14:52.381Z,9.42
2019-02-22T06:15:52.262Z,9.41
2019-02-22T06:16:52.678Z,9.42
2019-02-22T06:17:53.811Z,9.41
2019-02-22T06:18:52.459Z,9.43
2019-02-22T06:19:52.987Z,9.42
2019-02-22T06:20:52.690Z,9.42
2019-02-22T06:21:53.276Z,9.44
2019-02-22T06:22:54.110Z,9.42
2019-02-22T06:23:53.290Z,9.44
2019-02-22T06:24:52.616Z,9.45
2019-02-22T06:25:52.681Z,9.42
2019-02-22T06:26:52.501Z,9.44
2019-02-22T06:27:52.698Z,9.41
2019-02-22T06:28:52.752Z,9.42
2019-02-22T06:29:52.631Z,9.45
2019-02-22T06:30:52.776Z,9.4
2019-02-22T06:31:52.307Z,9.4
2019-02-22T06:32:52.373Z,9.4
2019-02-22T06:33:52.398Z,9.4
2019-02-22T06:34:52.562Z,9.39
2019-02-22T06:35:52.330Z,9.39
2019-02-22T06:37:03.814Z,9.39
2019-02-22T06:37:54.085Z,9.37
2019-02-22T06:38:52.539Z,9.38
2019-02-22T06:39:52.083Z,9.39
2019-02-22T06:40:52.110Z,9.39
2019-02-22T06:41:52.081Z,9.39
2019-02-22T06:42:52.414Z,9.39
2019-02-22T06:43:52.528Z,9.36
2019-02-22T06:44:52.956Z,9.39
2019-02-22T06:45:52.194Z,9.39
2019-02-22T06:46:52.254Z,9.36
2019-02-22T06:47:52.455Z,9.39
2019-02-22T06:48:52.315Z,9.38
2019-02-22T06:49:52.485Z,9.38
2019-02-22T06:50:53.219Z,9.38
2019-02-22T06:51:52.373Z,9.38
2019-02-22T06:52:52.032Z,9.36
2019-02-22T06:53:52.503Z,9.35
2019-02-22T06:54:53.129Z,9.36
2019-02-22T06:55:52.265Z,9.4
2019-02-22T06:56:52.317Z,9.4
2019-02-22T06:57:52.910Z,9.4
2019-02-22T06:58:52.333Z,9.39
2019-02-22T06:59:52.261Z,9.4
2019-02-22T07:00:52.558Z,9.39
2019-02-22T07:01:52.453Z,9.39
2019-02-22T07:02:52.202Z,9.39
2019-02-22T07:03:52.311Z,9.4
2019-02-22T07:04:52.585Z,9.41
2019-02-22T07:05:52.889Z,9.44
2019-02-22T07:06:54.057Z,9.43
2019-02-22T07:07:52.338Z,9.44
2019-02-22T07:08:52.700Z,9.47
2019-02-22T07:09:52.392Z,9.47
2019-02-22T07:10:52.874Z,9.47
2019-02-22T07:11:52.622Z,9.48
2019-02-22T07:12:57.783Z,9.49
2019-02-22T07:13:52.534Z,9.5
2019-02-22T07:14:52.444Z,9.48
2019-02-22T07:15:52.263Z,9.48
2019-02-22T07:16:52.187Z,9.5
2019-02-22T07:17:51.998Z,9.49
2019-02-22T07:18:52.763Z,9.52
2019-02-22T07:19:52.775Z,9.53
2019-02-22T07:20:52.559Z,9.54
2019-02-22T07:21:53.562Z,9.54
2019-02-22T07:22:54.007Z,9.55
2019-02-22T07:23:52.601Z,9.58
2019-02-22T07:24:52.345Z,9.56
2019-02-22T07:25:52.359Z,9.58
2019-02-22T07:26:52.718Z,9.58
2019-02-22T07:27:52.527Z,9.56
2019-02-22T07:28:53.078Z,9.59
2019-02-22T07:29:53.999Z,9.58
2019-02-22T07:30:52.407Z,9.56
2019-02-22T07:32:06.719Z,9.55
2019-02-22T07:32:52.783Z,9.53
2019-02-22T07:33:52.831Z,9.53
2019-02-22T07:34:52.374Z,9.54
2019-02-22T07:35:52.291Z,9.5
2019-02-22T07:36:52.322Z,9.53
2019-02-22T07:37:52.355Z,9.54
2019-02-22T07:38:52.602Z,9.54
2019-02-22T07:39:54.009Z,9.53
2019-02-22T07:40:53.056Z,9.54
2019-02-22T07:41:52.159Z,9.55
2019-02-22T07:42:52.609Z,9.55
2019-02-22T07:43:52.507Z,9.58
2019-02-22T07:44:52.244Z,9.58
2019-02-22T07:45:52.539Z,9.58
2019-02-22T07:46:52.527Z,9.6
2019-02-22T07:47:52.671Z,9.6
2019-02-22T07:48:53.144Z,9.61
2019-02-22T07:49:52.788Z,9.61
2019-02-22T07:50:58.802Z,9.62
2019-02-22T07:51:54.194Z,9.63
2019-02-22T07:52:53.971Z,9.63
2019-02-22T07:53:52.480Z,9.67
2019-02-22T07:54:53.961Z,9.68
2019-02-22T07:55:52.189Z,9.7
2019-02-22T07:56:54.005Z,9.72
2019-02-22T07:57:51.952Z,9.74
2019-02-22T07:58:51.971Z,9.75
2019-02-22T07:59:52.305Z,9.78
2019-02-22T08:00:52.427Z,9.79
2019-02-22T08:01:52.271Z,9.8
2019-02-22T08:02:53.993Z,9.82
2019-02-22T08:03:52.491Z,9.82
2019-02-22T08:04:53.942Z,9.85
2019-02-22T08:05:52.371Z,9.85
2019-02-22T08:06:53.002Z,9.86
2019-02-22T08:07:52.332Z,9.87
2019-02-22T08:08:52.393Z,9.86
2019-02-22T08:09:52.164Z,9.9
2019-02-22T08:10:52.236Z,9.92
2019-02-22T08:11:52.860Z,9.92
2019-02-22T08:12:53.312Z,9.97
2019-02-22T08:13:52.726Z,9.97
2019-02-22T08:14:52.192Z,9.97
2019-02-22T08:15:52.339Z,10
2019-02-22T08:16:52.472Z,10
2019-02-22T08:17:52.740Z,10.02
2019-02-22T08:19:02.285Z,10.02
2019-02-22T08:19:52.474Z,10.05
2019-02-22T08:20:52.506Z,10.06
2019-02-22T08:21:53.347Z,10.07
2019-02-22T08:22:52.088Z,10.1
2019-02-22T08:23:52.652Z,10.1
2019-02-22T08:24:52.212Z,10.11
2019-02-22T08:25:52.947Z,10.15
2019-02-22T08:26:52.235Z,10.16
2019-02-22T08:27:54.771Z,10.17
2019-02-22T08:28:52.445Z,10.19
2019-02-22T08:29:52.420Z,10.23
2019-02-22T08:30:52.542Z,10.28
2019-02-22T08:32:53.315Z,10.29
2019-02-22T08:33:52.655Z,10.29
2019-02-22T08:34:52.858Z,10.3
2019-02-22T08:35:53.954Z,10.33
2019-02-22T08:36:52.128Z,10.35
2019-02-22T08:37:52.392Z,10.36
2019-02-22T08:38:52.080Z,10.41
2019-02-22T08:40:02.853Z,10.42
2019-02-22T08:40:52.504Z,10.43
2019-02-22T08:41:52.292Z,10.44
2019-02-22T08:42:52.162Z,10.44
2019-02-22T08:43:52.627Z,10.48
2019-02-22T08:44:52.626Z,10.49
2019-02-22T08:45:52.169Z,10.53
2019-02-22T08:46:52.160Z,10.54
2019-02-22T08:47:53.156Z,10.53
2019-02-22T08:48:52.557Z,10.55
2019-02-22T08:49:52.233Z,10.56
2019-02-22T08:50:52.595Z,10.58
2019-02-22T08:51:52.891Z,10.62
2019-02-22T08:52:52.072Z,10.62
2019-02-22T08:53:52.570Z,10.65
2019-02-22T08:54:52.138Z,10.66
2019-02-22T08:55:52.173Z,10.68
2019-02-22T08:56:53.291Z,10.72
2019-02-22T08:57:52.622Z,10.71
2019-02-22T08:58:52.151Z,10.76
2019-02-22T08:59:52.192Z,10.74
2019-02-22T09:00:52.331Z,10.74
2019-02-22T09:01:52.294Z,10.77
2019-02-22T09:02:52.243Z,10.79
2019-02-22T09:03:53.969Z,10.8
2019-02-22T09:04:52.122Z,10.81
2019-02-22T09:05:52.369Z,10.81
2019-02-22T09:06:52.842Z,10.84
2019-02-22T09:07:52.941Z,10.87
2019-02-22T09:08:52.807Z,10.86
2019-02-22T09:09:52.481Z,10.87
2019-02-22T09:11:01.191Z,10.86
2019-02-22T09:11:52.223Z,10.87
2019-02-22T09:12:52.078Z,10.87
2019-02-22T09:13:52.163Z,10.9
2019-02-22T09:14:52.128Z,10.89
2019-02-22T09:15:52.844Z,10.91
2019-02-22T09:16:52.116Z,10.92
2019-02-22T09:17:52.219Z,10.94
2019-02-22T09:18:53.156Z,10.93
2019-02-22T09:19:52.270Z,10.96
2019-02-22T09:20:52.381Z,10.96
2019-02-22T09:21:53.841Z,10.98
2019-02-22T09:22:52.197Z,11
2019-02-22T09:23:52.324Z,11.02
2019-02-22T09:24:52.575Z,11.04
2019-02-22T09:25:52.301Z,11.05
2019-02-22T09:26:52.085Z,11.07
2019-02-22T09:27:52.556Z,11.09
2019-02-22T09:28:52.332Z,11.1
2019-02-22T09:29:59.461Z,11.11
2019-02-22T09:30:52.532Z,11.11
2019-02-22T09:31:52.088Z,11.16
2019-02-22T09:32:52.855Z,11.18
2019-02-22T09:33:52.133Z,11.21
2019-02-22T09:34:52.157Z,11.24
2019-02-22T09:35:52.259Z,11.24
2019-02-22T09:36:52.311Z,11.27
2019-02-22T09:37:52.225Z,11.29
2019-02-22T09:38:52.068Z,11.27
2019-02-22T09:39:51.972Z,11.23
2019-02-22T09:40:52.655Z,11.28
2019-02-22T09:41:53.732Z,11.29
2019-02-22T09:42:52.402Z,11.28
2019-02-22T09:43:56.222Z,11.27
2019-02-22T09:44:52.310Z,11.25
2019-02-22T09:45:52.209Z,11.29
2019-02-22T09:46:52.148Z,11.33
2019-02-22T09:47:52.235Z,11.35
2019-02-22T09:48:52.546Z,11.33
2019-02-22T09:49:51.966Z,11.39
2019-02-22T09:50:52.363Z,11.41
2019-02-22T09:51:52.084Z,11.39
2019-02-22T09:52:52.102Z,11.43
2019-02-22T09:53:53.838Z,11.41
2019-02-22T09:54:52.196Z,11.42
2019-02-22T09:55:52.417Z,11.41
2019-02-22T09:56:53.811Z,11.38
2019-02-22T09:57:52.051Z,11.37
2019-02-22T09:58:52.553Z,11.38
2019-02-22T09:59:52.361Z,11.42
2019-02-22T10:00:52.408Z,11.47
2019-02-22T10:01:52.335Z,11.5
2019-02-22T10:02:52.926Z,11.48
2019-02-22T10:03:52.541Z,11.44
2019-02-22T10:04:55.903Z,11.41
2019-02-22T10:05:51.949Z,11.48
2019-02-22T10:06:52.113Z,11.5
2019-02-22T10:07:52.269Z,11.52
2019-02-22T10:08:52.298Z,11.49
2019-02-22T10:09:52.319Z,11.5
2019-02-22T10:10:52.318Z,11.5
2019-02-22T10:11:52.285Z,11.57
2019-02-22T10:12:52.508Z,11.58
2019-02-22T10:13:52.256Z,11.6
2019-02-22T10:14:52.317Z,11.57
2019-02-22T10:15:53.793Z,11.59
2019-02-22T10:16:52.196Z,11.58
2019-02-22T10:17:52.243Z,11.6
2019-02-22T10:18:52.345Z,11.67
2019-02-22T10:19:52.150Z,11.64
2019-02-22T10:20:52.157Z,11.65
2019-02-22T10:21:52.460Z,11.66
2019-02-22T10:22:52.560Z,11.73
2019-02-22T10:23:51.938Z,11.68
2019-02-22T10:24:52.227Z,11.64
2019-02-22T10:25:53.069Z,11.69
2019-02-22T10:26:52.129Z,11.72
2019-02-22T10:27:52.080Z,11.72
2019-02-22T10:28:52.114Z,11.79
2019-02-22T10:29:52.250Z,11.78
2019-02-22T10:30:52.038Z,11.76
2019-02-22T10:31:52.336Z,11.77
2019-02-22T10:32:53.784Z,11.76
2019-02-22T10:33:52.230Z,11.78
2019-02-22T10:34:52.091Z,11.82
2019-02-22T10:35:52.195Z,11.81
2019-02-22T10:36:52.156Z,11.75
2019-02-22T10:37:52.085Z,11.76
2019-02-22T10:38:52.169Z,11.84
2019-02-22T10:39:51.948Z,11.8
2019-02-22T10:40:52.762Z,11.8
2019-02-22T10:41:52.087Z,11.81
2019-02-22T10:42:53.751Z,11.82
2019-02-22T10:43:53.739Z,11.82
2019-02-22T10:44:52.068Z,11.83
2019-02-22T10:45:52.204Z,11.83
2019-02-22T10:46:52.924Z,11.85
2019-02-22T10:47:53.056Z,11.88
2019-02-22T10:48:53.059Z,11.9
2019-02-22T10:49:52.735Z,11.9
2019-02-22T10:50:51.911Z,11.92
2019-02-22T10:51:52.226Z,11.93
2019-02-22T10:53:02.776Z,11.95
2019-02-22T10:53:52.053Z,11.97
2019-02-22T10:54:51.934Z,11.96
2019-02-22T10:55:51.927Z,12
2019-02-22T10:56:52.198Z,12.03
2019-02-22T10:57:52.298Z,12.05
2019-02-22T10:58:52.007Z,12.06
2019-02-22T10:59:52.395Z,12.07
2019-02-22T11:00:52.120Z,12.1
2019-02-22T11:01:52.609Z,12.17
2019-02-22T11:02:53.714Z,12.18
2019-02-22T11:03:52.239Z,12.21
2019-02-22T11:04:52.510Z,12.22
2019-02-22T11:05:53.726Z,12.26
2019-02-22T11:06:52.130Z,12.26
2019-02-22T11:07:52.700Z,12.27
2019-02-22T11:08:52.171Z,12.28
2019-02-22T11:09:52.818Z,12.3
2019-02-22T11:10:52.770Z,12.32
2019-02-22T11:11:52.267Z,12.33
2019-02-22T11:12:52.182Z,12.3
2019-02-22T11:13:52.183Z,12.29
2019-02-22T11:14:51.988Z,12.31
2019-02-22T11:15:53.685Z,12.27
2019-02-22T11:16:51.843Z,12.31
2019-02-22T11:17:52.334Z,12.25
2019-02-22T11:18:52.219Z,12.23
2019-02-22T11:19:52.296Z,12.21
2019-02-22T11:20:52.063Z,12.22
2019-02-22T11:21:52.237Z,12.22
2019-02-22T11:22:52.347Z,12.25
2019-02-22T11:23:52.333Z,12.27
2019-02-22T11:24:53.689Z,12.27
2019-02-22T11:25:52.266Z,12.27
2019-02-22T11:26:52.210Z,12.28
2019-02-22T11:27:51.871Z,12.28
2019-02-22T11:28:52.185Z,12.3
2019-02-22T11:29:51.869Z,12.33
2019-02-22T11:30:52.121Z,12.35
2019-02-22T11:31:52.212Z,12.33
2019-02-22T11:32:52.639Z,12.34
2019-02-22T11:33:52.227Z,12.35
2019-02-22T11:34:52.144Z,12.38
2019-02-22T11:35:51.891Z,12.38
2019-02-22T11:36:52.159Z,12.4
2019-02-22T11:37:52.257Z,12.36
2019-02-22T11:38:53.700Z,12.31
2019-02-22T11:39:51.867Z,12.26
2019-02-22T11:40:52.476Z,12.31
2019-02-22T11:41:52.185Z,12.32
2019-02-22T11:42:52.399Z,12.36
2019-02-22T11:43:52.057Z,12.34
2019-02-22T11:44:51.868Z,12.37
2019-02-22T11:45:52.586Z,12.38
2019-02-22T11:46:51.847Z,12.37
2019-02-22T11:47:52.144Z,12.4
2019-02-22T11:48:53.665Z,12.42
2019-02-22T11:49:51.650Z,12.41
2019-02-22T11:50:52.253Z,12.44
2019-02-22T11:51:52.098Z,12.44
2019-02-22T11:52:52.027Z,12.47
2019-02-22T11:53:52.063Z,12.49
2019-02-22T11:54:53.646Z,12.51
2019-02-22T11:55:52.076Z,12.52
2019-02-22T11:56:52.085Z,12.54
2019-02-22T11:57:52.189Z,12.57
2019-02-22T11:58:51.760Z,12.59
2019-02-22T11:59:52.010Z,12.63
2019-02-22T12:00:52.175Z,12.63
2019-02-22T12:01:52.113Z,12.67
2019-02-22T12:02:52.102Z,12.7
2019-02-22T12:03:51.926Z,12.78
2019-02-22T12:04:52.129Z,12.88
2019-02-22T12:05:52.428Z,12.95
2019-02-22T12:06:52.068Z,12.98
2019-02-22T12:07:51.795Z,12.91
2019-02-22T12:08:52.008Z,12.89
2019-02-22T12:09:52.257Z,12.85
2019-02-22T12:10:52.071Z,12.83
2019-02-22T12:11:52.225Z,12.77
2019-02-22T12:12:51.861Z,12.79
2019-02-22T12:13:51.962Z,12.72
2019-02-22T12:14:52.714Z,12.71
2019-02-22T12:15:52.039Z,12.7
2019-02-22T12:16:53.018Z,12.71
2019-02-22T12:17:52.520Z,12.72
2019-02-22T12:18:52.815Z,12.72
2019-02-22T12:19:51.964Z,12.73
2019-02-22T12:20:51.967Z,12.77
2019-02-22T12:21:51.865Z,12.78
2019-02-22T12:22:51.904Z,12.76
2019-02-22T12:23:53.717Z,12.78
2019-02-22T12:24:51.840Z,12.79
2019-02-22T12:25:51.904Z,12.79
2019-02-22T12:26:51.892Z,12.84
2019-02-22T12:27:52.190Z,12.85
2019-02-22T12:28:52.276Z,12.84
2019-02-22T12:29:51.820Z,12.86
2019-02-22T12:30:51.916Z,12.85
2019-02-22T12:31:52.208Z,12.82
2019-02-22T12:32:52.201Z,12.81
2019-02-22T12:33:51.878Z,12.81
2019-02-22T12:34:52.308Z,12.81
2019-02-22T12:35:51.885Z,12.79
2019-02-22T12:36:52.178Z,12.8
2019-02-22T12:37:51.891Z,12.77
2019-02-22T12:38:52.358Z,12.77
2019-02-22T12:39:52.252Z,12.78
2019-02-22T12:40:52.259Z,12.8
2019-02-22T12:41:54.072Z,12.77
2019-02-22T12:42:51.883Z,12.77
2019-02-22T12:43:52.397Z,12.78
2019-02-22T12:45:03.817Z,12.78
2019-02-22T12:45:51.845Z,12.8
2019-02-22T12:46:52.767Z,12.79
2019-02-22T12:47:51.832Z,12.81
2019-02-22T12:48:52.109Z,12.81
2019-02-22T12:49:51.822Z,12.85
2019-02-22T12:50:52.531Z,12.85
2019-02-22T12:51:52.137Z,12.87
2019-02-22T12:52:52.151Z,12.91
2019-02-22T12:53:52.231Z,12.91
2019-02-22T12:54:51.699Z,12.91
2019-02-22T12:55:51.833Z,12.96
2019-02-22T12:56:58.780Z,12.97
2019-02-22T12:57:51.804Z,12.98
2019-02-22T12:58:51.762Z,12.95
2019-02-22T12:59:51.988Z,12.96
2019-02-22T13:00:52.954Z,12.98
2019-02-22T13:01:52.749Z,12.98
2019-02-22T13:03:02.931Z,12.97
2019-02-22T13:03:51.757Z,13.01
2019-02-22T13:04:51.914Z,13.03
2019-02-22T13:05:51.819Z,13.09
2019-02-22T13:06:52.435Z,13.12
2019-02-22T13:07:53.467Z,13.1
2019-02-22T13:08:51.813Z,13.11
2019-02-22T13:09:52.112Z,13.1
2019-02-22T13:10:51.862Z,13.05
2019-02-22T13:11:52.073Z,13.06
2019-02-22T13:12:52.084Z,13.06
2019-02-22T13:13:51.749Z,13.03
2019-02-22T13:14:51.861Z,13.03
2019-02-22T13:15:52.189Z,13.03